Time;durP1;ratioP1;P1;durP2;ratioP2;P2;SDS_P1;SDS_P2;PMS_P1;PMS_P2;Temp;Humidity;BMP_temperature;BMP_pressure;BME280_temperature;BME280_humidity;BME280_pressure;Samples;Min_cycle;Max_cycle;Signal;HPM_P1;HPM_P2
2022/08/01 00:01:50;;;;;;;5.10;4.57;;;17.70;99.90;;;;;;5177358;27;20023;-80
2022/08/01 00:04:16;;;;;;;4.95;4.28;;;17.60;99.90;;;;;;5177050;27;20381;-79
2022/08/01 00:06:42;;;;;;;6.65;4.22;;;17.60;99.90;;;;;;5158335;27;20459;-79
2022/08/01 00:09:26;;;;;;;4.47;4.18;;;17.60;99.90;;;;;;5176752;27;20026;-80
2022/08/01 00:11:52;;;;;;;6.65;4.70;;;17.50;99.90;;;;;;5158660;27;20496;-80
2022/08/01 00:14:18;;;;;;;4.93;4.53;;;17.50;99.90;;;;;;5158607;27;20050;-79
2022/08/01 00:16:44;;;;;;;5.82;4.10;;;17.50;99.90;;;;;;5176721;27;20022;-80
2022/08/01 00:19:10;;;;;;;5.97;4.40;;;17.40;99.90;;;;;;5158118;27;20026;-80
2022/08/01 00:21:35;;;;;;;5.90;4.47;;;17.40;99.90;;;;;;5176734;27;20044;-80
2022/08/01 00:24:01;;;;;;;4.90;4.40;;;17.40;99.90;;;;;;5158242;27;20455;-80
2022/08/01 00:26:27;;;;;;;4.63;4.25;;;17.40;99.90;;;;;;5158086;27;20026;-80
2022/08/01 00:28:52;;;;;;;5.00;4.60;;;17.40;99.90;;;;;;5158205;27;20375;-80
2022/08/01 00:31:18;;;;;;;5.25;4.55;;;17.30;99.90;;;;;;5157739;27;20027;-80
2022/08/01 00:33:44;;;;;;;8.38;5.00;;;17.30;99.90;;;;;;5176654;27;20022;-80
2022/08/01 00:36:09;;;;;;;6.28;5.13;;;17.30;99.90;;;;;;5157781;27;20112;-81
2022/08/01 00:38:35;;;;;;;4.90;4.50;;;17.30;99.90;;;;;;5176353;27;20110;-80
2022/08/01 00:41:00;;;;;;;7.22;5.25;;;17.20;99.90;;;;;;5157901;27;20187;-80
2022/08/01 00:43:26;;;;;;;4.68;4.28;;;17.20;99.90;;;;;;5157988;27;20506;-79
2022/08/01 00:45:52;;;;;;;5.03;4.57;;;17.20;99.90;;;;;;5176147;27;20024;-81
2022/08/01 00:48:17;;;;;;;5.68;5.00;;;17.20;99.90;;;;;;5157796;27;20082;-80
2022/08/01 00:50:43;;;;;;;7.18;4.97;;;17.20;99.90;;;;;;5175987;27;20068;-80
2022/08/01 00:53:09;;;;;;;6.78;5.55;;;17.10;99.90;;;;;;5180114;27;20101;-80
2022/08/01 00:55:35;;;;;;;7.70;5.35;;;17.10;99.90;;;;;;5162045;27;20022;-80
2022/08/01 00:58:01;;;;;;;5.50;5.03;;;17.10;99.90;;;;;;5161998;27;20075;-81
2022/08/01 01:00:27;;;;;;;5.15;4.75;;;17.10;99.90;;;;;;5162117;27;20432;-81
2022/08/01 01:02:52;;;;;;;6.00;5.05;;;17.00;99.90;;;;;;5161748;27;20079;-81
2022/08/01 01:05:18;;;;;;;5.22;4.72;;;17.00;99.90;;;;;;5161589;27;20019;-82
2022/08/01 01:08:02;;;;;;;5.82;4.70;;;17.00;99.90;;;;;;5180308;27;20097;-80
2022/08/01 01:10:31;;;;;;;7.40;5.28;;;17.00;99.90;;;;;;5180051;27;20459;-81
2022/08/01 01:13:06;;;;;;;6.75;5.22;;;17.00;99.90;;;;;;5161879;27;20026;-80
2022/08/01 01:15:41;;;;;;;6.38;5.40;;;16.90;99.90;;;;;;5161861;27;20031;-81
2022/08/01 01:18:10;;;;;;;6.55;5.95;;;16.90;99.90;;;;;;5180389;27;20109;-81
2022/08/01 01:20:44;;;;;;;5.50;5.00;;;16.90;99.90;;;;;;5161689;27;20512;-82
2022/08/01 01:23:45;;;;;;;6.93;5.60;;;16.90;99.90;;;;;;5161464;27;20319;-81
2022/08/01 01:26:48;;;;;;;7.35;5.45;;;16.90;99.90;;;;;;5161763;27;20117;-82
2022/08/01 01:29:22;;;;;;;5.63;5.03;;;16.90;99.90;;;;;;5161828;27;20483;-81
2022/08/01 01:32:03;;;;;;;6.53;5.07;;;16.90;99.90;;;;;;5179743;27;20034;-82
2022/08/01 01:34:31;;;;;;;6.00;5.38;;;16.90;99.90;;;;;;5161880;27;20023;-82
2022/08/01 01:36:59;;;;;;;5.37;4.90;;;16.90;99.90;;;;;;5161586;27;20026;-81
2022/08/01 01:39:28;;;;;;;6.43;5.72;;;16.90;99.90;;;;;;5180021;27;20034;-81
2022/08/01 01:41:56;;;;;;;6.30;5.60;;;16.90;99.90;;;;;;5179506;27;20054;-81
2022/08/01 01:44:22;;;;;;;8.50;5.85;;;16.90;99.90;;;;;;5179825;27;20109;-80
2022/08/01 01:46:49;;;;;;;6.07;5.53;;;17.00;99.90;;;;;;5179637;27;20097;-81
2022/08/01 01:49:17;;;;;;;5.68;5.10;;;17.10;99.90;;;;;;5160915;27;20055;-81
2022/08/01 01:51:44;;;;;;;5.70;4.63;;;17.20;99.90;;;;;;5161009;27;20062;-82
2022/08/01 01:54:10;;;;;;;8.40;4.53;;;17.20;99.90;;;;;;5179563;27;20022;-82
2022/08/01 01:56:48;;;;;;;5.55;4.90;;;17.20;99.90;;;;;;5160575;27;20034;-81
2022/08/01 01:59:19;;;;;;;5.13;4.63;;;17.20;99.90;;;;;;5179646;27;20022;-81
2022/08/01 02:01:47;;;;;;;5.30;4.80;;;17.30;99.90;;;;;;5161047;27;20109;-81
2022/08/01 02:04:14;;;;;;;5.28;4.70;;;17.30;99.90;;;;;;5160285;27;20053;-81
2022/08/01 02:06:41;;;;;;;5.65;5.18;;;17.30;99.90;;;;;;5160349;27;20023;-81
2022/08/01 02:09:08;;;;;;;6.60;4.70;;;17.30;99.90;;;;;;5160671;27;20019;-81
2022/08/01 02:11:37;;;;;;;4.90;4.38;;;17.40;99.90;;;;;;5178774;27;20042;-82
2022/08/01 02:14:03;;;;;;;;;;;17.40;99.90;;;;;;5179714;27;20474;-82
2022/08/01 02:16:36;;;;;;;8.00;4.45;;;17.50;99.90;;;;;;5160392;27;19906;-81
2022/08/01 02:19:03;;;;;;;6.65;4.18;;;17.50;99.90;;;;;;5161200;27;20026;-82
2022/08/01 02:21:44;;;;;;;4.63;4.22;;;17.60;99.90;;;;;;5160289;27;20468;-81
2022/08/01 02:24:23;;;;;;;5.32;4.53;;;17.60;99.90;;;;;;5160408;27;20025;-82
2022/08/01 02:26:52;;;;;;;5.22;4.82;;;17.60;99.90;;;;;;5178967;27;20023;-81
2022/08/01 02:29:23;;;;;;;4.68;4.20;;;17.70;99.90;;;;;;5178862;27;20080;-81
2022/08/01 02:31:54;;;;;;;4.80;4.35;;;17.70;99.90;;;;;;5160496;27;20030;-80
2022/08/01 02:34:20;;;;;;;5.43;5.03;;;17.70;99.90;;;;;;5160834;27;20031;-80
2022/08/01 02:36:47;;;;;;;7.18;4.60;;;17.70;99.90;;;;;;5160246;27;20493;-80
2022/08/01 02:39:17;;;;;;;7.60;4.40;;;17.80;99.90;;;;;;5178617;27;20026;-81
2022/08/01 02:41:48;;;;;;;4.63;4.32;;;17.80;99.90;;;;;;5177961;27;20072;-80
2022/08/01 02:44:23;;;;;;;5.07;4.43;;;17.80;99.90;;;;;;5178494;27;20022;-81
2022/08/01 02:47:02;;;;;;;5.10;4.32;;;17.80;99.90;;;;;;5178614;27;20026;-81
2022/08/01 02:49:30;;;;;;;5.28;4.78;;;17.80;99.90;;;;;;5178466;27;20125;-80
2022/08/01 02:51:57;;;;;;;5.22;4.78;;;17.80;99.90;;;;;;5159785;27;20042;-80
2022/08/01 02:54:25;;;;;;;5.78;4.53;;;17.80;99.90;;;;;;5159787;27;20025;-80
2022/08/01 02:56:53;;;;;;;4.53;4.13;;;17.90;99.90;;;;;;5159598;27;20041;-80
2022/08/01 02:59:25;;;;;;;5.93;4.72;;;17.90;99.90;;;;;;5159559;27;20026;-80
2022/08/01 03:01:55;;;;;;;4.35;3.92;;;17.90;99.90;;;;;;5160250;27;20530;-80
2022/08/01 03:04:25;;;;;;;3.97;3.63;;;18.00;99.90;;;;;;5159520;27;20018;-80
2022/08/01 03:06:53;;;;;;;4.72;4.18;;;17.90;99.90;;;;;;5159555;27;20026;-80
2022/08/01 03:09:20;;;;;;;5.53;4.30;;;18.00;99.90;;;;;;5178131;27;20027;-80
2022/08/01 03:11:48;;;;;;;4.45;3.92;;;18.00;99.90;;;;;;5177724;27;20105;-80
2022/08/01 03:14:15;;;;;;;5.73;3.83;;;18.00;99.90;;;;;;5158687;27;20026;-80
2022/08/01 03:16:42;;;;;;;6.82;4.13;;;18.00;99.90;;;;;;5177855;27;20019;-81
2022/08/01 03:19:11;;;;;;;4.90;3.92;;;18.00;99.90;;;;;;5159485;27;20022;-81
2022/08/01 03:21:38;;;;;;;4.78;4.35;;;18.10;99.90;;;;;;5159284;27;20417;-81
2022/08/01 03:24:06;;;;;;;4.97;4.05;;;18.10;99.90;;;;;;5177963;27;20037;-81
2022/08/01 03:26:35;;;;;;;6.38;4.65;;;18.10;99.90;;;;;;5177746;27;20065;-81
2022/08/01 03:29:08;;;;;;;5.75;3.85;;;18.20;99.90;;;;;;5177861;27;20109;-82
2022/08/01 03:31:38;;;;;;;5.28;4.78;;;18.20;99.90;;;;;;5158965;27;20573;-80
2022/08/01 03:34:05;;;;;;;7.35;4.20;;;18.20;99.90;;;;;;5177675;27;20543;-81
2022/08/01 03:36:32;;;;;;;5.90;4.28;;;18.20;99.90;;;;;;5159014;27;20475;-80
2022/08/01 03:39:02;;;;;;;4.97;4.22;;;18.20;99.90;;;;;;5158876;27;20050;-80
2022/08/01 03:41:37;;;;;;;4.47;4.07;;;18.20;99.90;;;;;;5177422;27;20046;-80
2022/08/01 03:44:13;;;;;;;4.95;4.55;;;18.20;99.90;;;;;;5177073;27;20493;-80
2022/08/01 03:46:47;;;;;;;8.77;3.85;;;18.20;99.90;;;;;;5159032;27;20023;-80
2022/08/01 03:49:19;;;;;;;5.18;4.10;;;18.20;99.90;;;;;;5177169;27;20027;-81
2022/08/01 03:51:49;;;;;;;4.60;4.20;;;18.20;99.90;;;;;;5177124;27;20079;-80
2022/08/01 03:54:20;;;;;;;4.75;4.32;;;18.30;99.90;;;;;;5158561;27;20462;-80
2022/08/01 03:56:48;;;;;;;4.68;4.13;;;18.30;99.90;;;;;;5177387;27;20101;-80
2022/08/01 03:59:15;;;;;;;4.93;3.83;;;18.30;99.90;;;;;;5177194;27;20026;-65
2022/08/01 04:01:41;;;;;;;5.07;3.95;;;18.30;99.90;;;;;;5158080;27;20041;-66
2022/08/01 04:04:07;;;;;;;4.97;3.92;;;18.30;99.90;;;;;;5176425;27;20018;-66
2022/08/01 04:06:32;;;;;;;7.95;3.78;;;18.40;99.90;;;;;;5176319;27;20093;-66
2022/08/01 04:08:58;;;;;;;4.63;3.70;;;18.40;99.90;;;;;;5176517;27;20105;-66
2022/08/01 04:11:25;;;;;;;4.57;4.18;;;18.40;99.90;;;;;;5176345;27;20454;-66
2022/08/01 04:13:53;;;;;;;6.38;4.35;;;18.50;99.90;;;;;;5158762;27;20057;-66
2022/08/01 04:16:19;;;;;;;4.93;4.47;;;18.50;99.90;;;;;;5157615;27;20106;-66
2022/08/01 04:18:45;;;;;;;6.85;5.00;;;18.50;99.90;;;;;;5176583;27;20022;-66
2022/08/01 04:21:11;;;;;;;5.60;4.53;;;18.50;99.90;;;;;;5157809;27;20029;-66
2022/08/01 04:23:40;;;;;;;3.90;3.50;;;18.50;99.90;;;;;;5157792;27;20519;-66
2022/08/01 04:26:07;;;;;;;6.03;3.90;;;18.60;99.90;;;;;;5157832;27;20030;-66
2022/08/01 04:28:35;;;;;;;4.00;3.60;;;18.60;99.90;;;;;;5157607;27;20034;-66
2022/08/01 04:31:02;;;;;;;5.35;3.58;;;18.60;99.90;;;;;;5176602;27;20065;-66
2022/08/01 04:33:30;;;;;;;7.00;4.13;;;18.60;99.90;;;;;;5176841;27;20095;-66
2022/08/01 04:35:58;;;;;;;4.38;3.90;;;18.70;99.90;;;;;;5157951;27;20051;-70
2022/08/01 04:38:29;;;;;;;4.85;3.78;;;18.70;99.90;;;;;;5182989;27;20376;-66
2022/08/01 04:40:56;;;;;;;6.88;3.80;;;18.80;99.90;;;;;;5181415;27;20122;-66
2022/08/01 04:43:22;;;;;;;11.68;3.90;;;18.80;99.90;;;;;;5162075;27;20026;-66
2022/08/01 04:45:50;;;;;;;4.60;4.20;;;18.80;99.90;;;;;;5180684;27;20026;-66
2022/08/01 04:48:19;;;;;;;4.82;4.28;;;18.80;99.90;;;;;;5177714;27;20049;-66
2022/08/01 04:50:45;;;;;;;;;;;18.80;99.90;;;;;;5157830;27;20030;-66
2022/08/01 04:53:18;;;;;;;4.90;3.70;;;18.90;99.90;;;;;;5157535;27;20372;-66
2022/08/01 04:55:45;;;;;;;4.88;3.70;;;18.90;99.90;;;;;;5176085;27;20022;-66
2022/08/01 04:58:12;;;;;;;6.07;3.45;;;19.00;99.90;;;;;;5175751;27;20412;-66
2022/08/01 05:00:38;;;;;;;4.72;3.42;;;19.10;99.90;;;;;;5176003;27;20033;-66
2022/08/01 05:03:03;;;;;;;5.72;3.92;;;19.20;99.90;;;;;;5176033;27;20026;-66
2022/08/01 05:05:30;;;;;;;7.45;3.70;;;19.30;99.90;;;;;;5157817;27;20043;-66
2022/08/01 05:07:56;;;;;;;3.95;3.20;;;19.30;99.90;;;;;;5157105;27;20456;-66
2022/08/01 05:10:21;;;;;;;6.30;4.03;;;19.40;99.90;;;;;;5157273;27;20034;-66
2022/08/01 05:12:47;;;;;;;3.83;3.20;;;19.50;99.90;;;;;;5175899;27;20060;-60
2022/08/01 05:15:13;;;;;;;5.63;3.05;;;19.60;99.90;;;;;;5175558;27;20030;-59
2022/08/01 05:17:38;;;;;;;4.80;3.08;;;19.70;99.90;;;;;;5175507;27;20105;-59
2022/08/01 05:20:06;;;;;;;8.18;3.90;;;19.80;99.90;;;;;;5176010;27;20026;-60
2022/08/01 05:22:31;;;;;;;5.20;3.20;;;19.90;99.90;;;;;;5176042;27;20026;-60
2022/08/01 05:24:59;;;;;;;6.30;3.63;;;19.90;99.90;;;;;;5175674;27;20363;-58
2022/08/01 05:27:25;;;;;;;3.90;3.22;;;20.00;99.90;;;;;;5175913;27;20441;-58
2022/08/01 05:29:51;;;;;;;3.22;2.92;;;20.00;99.90;;;;;;5175519;27;20028;-65
2022/08/01 05:32:17;;;;;;;4.97;3.38;;;20.10;99.90;;;;;;5175691;27;20022;-76
2022/08/01 05:34:46;;;;;;;6.30;3.53;;;20.20;99.90;;;;;;5175868;27;20084;-76
2022/08/01 05:37:12;;;;;;;3.55;3.05;;;20.20;99.90;;;;;;5157066;27;20174;-77
2022/08/01 05:39:37;;;;;;;3.45;3.15;;;20.30;99.90;;;;;;5146086;27;20122;-75
2022/08/01 05:42:03;;;;;;;4.93;3.25;;;20.40;99.90;;;;;;5179324;27;20451;-76
2022/08/01 05:44:28;;;;;;;6.00;3.17;;;20.40;99.90;;;;;;5172274;27;20030;-76
2022/08/01 05:46:54;;;;;;;7.85;3.42;;;20.40;99.90;;;;;;5158065;27;20459;-75
2022/08/01 05:49:20;;;;;;;6.25;2.58;;;20.40;99.90;;;;;;5158399;27;20463;-76
2022/08/01 05:51:45;;;;;;;4.20;3.17;;;20.50;99.90;;;;;;5152797;27;20039;-75
2022/08/01 05:54:11;;;;;;;3.50;3.20;;;20.50;99.90;;;;;;5157578;27;20025;-75
2022/08/01 05:56:37;;;;;;;5.97;2.95;;;20.60;99.90;;;;;;5156946;27;20030;-73
2022/08/01 05:59:02;;;;;;;3.47;3.15;;;20.60;99.90;;;;;;5158186;27;20072;-76
2022/08/01 06:01:28;;;;;;;3.40;3.08;;;20.70;99.90;;;;;;5157912;27;20031;-64
2022/08/01 06:03:54;;;;;;;5.35;3.15;;;20.80;99.90;;;;;;5156796;27;20419;-64
2022/08/01 06:06:23;;;;;;;4.63;3.38;;;20.90;99.90;;;;;;5158132;27;20019;-63
2022/08/01 06:08:48;;;;;;;3.72;2.78;;;21.00;99.90;;;;;;5158128;27;20031;-63
2022/08/01 06:11:14;;;;;;;3.80;2.92;;;21.10;99.90;;;;;;5156697;27;20035;-63
2022/08/01 06:13:40;;;;;;;2.95;2.70;;;21.10;99.90;;;;;;5157508;27;20383;-66
2022/08/01 06:16:06;;;;;;;3.63;2.38;;;21.20;99.90;;;;;;5156409;27;20034;-62
2022/08/01 06:18:31;;;;;;;2.60;2.40;;;21.20;99.90;;;;;;5156661;27;20023;-62
2022/08/01 06:20:57;;;;;;;4.85;2.65;;;21.30;99.90;;;;;;5157710;27;20023;-63
2022/08/01 06:23:23;;;;;;;2.75;2.55;;;21.40;99.90;;;;;;5157463;27;20023;-63
2022/08/01 06:25:51;;;;;;;4.13;2.80;;;21.40;99.90;;;;;;5158056;27;20018;-63
2022/08/01 06:28:17;;;;;;;;;;;21.50;99.90;;;;;;5158267;27;20456;-64
2022/08/01 06:30:43;;;;;;;6.05;3.17;;;21.60;99.90;;;;;;5157464;27;19918;-63
2022/08/01 06:33:08;;;;;;;3.22;2.97;;;21.70;99.90;;;;;;5157504;27;20030;-63
2022/08/01 06:35:34;;;;;;;3.75;2.30;;;21.80;99.90;;;;;;5157668;27;20424;-62
2022/08/01 06:38:00;;;;;;;3.28;2.30;;;21.90;99.90;;;;;;5157664;27;20027;-63
2022/08/01 06:40:26;;;;;;;4.18;2.50;;;22.00;99.90;;;;;;5157243;27;20056;-62
2022/08/01 06:42:51;;;;;;;3.05;2.15;;;22.10;99.90;;;;;;5157363;27;20023;-63
2022/08/01 06:45:17;;;;;;;4.75;2.35;;;22.20;99.90;;;;;;5156965;27;20439;-62
2022/08/01 06:47:44;;;;;;;6.07;2.50;;;22.30;99.90;;;;;;5157425;27;20026;-63
2022/08/01 06:50:11;;;;;;;5.75;1.95;;;22.50;99.90;;;;;;5157221;27;20042;-63
2022/08/01 06:52:37;;;;;;;3.20;2.38;;;22.60;99.90;;;;;;5157049;27;20023;-64
2022/08/01 06:55:03;;;;;;;3.30;2.40;;;22.80;99.90;;;;;;5157010;27;20064;-61
2022/08/01 06:57:29;;;;;;;2.00;1.70;;;23.10;99.90;;;;;;5156712;27;20087;-60
2022/08/01 06:59:55;;;;;;;4.22;1.90;;;23.30;99.90;;;;;;5155659;27;20511;-61
2022/08/01 07:02:22;;;;;;;2.03;1.80;;;23.50;99.90;;;;;;5156578;27;20106;-60
2022/08/01 07:04:47;;;;;;;3.05;2.13;;;23.70;99.90;;;;;;5156889;27;20019;-61
2022/08/01 07:07:13;;;;;;;4.25;1.90;;;23.80;99.90;;;;;;5157194;27;20519;-61
2022/08/01 07:09:41;;;;;;;2.00;1.80;;;23.90;99.90;;;;;;5156652;27;20030;-60
2022/08/01 07:12:07;;;;;;;6.25;1.90;;;24.00;99.90;;;;;;5156273;27;20102;-61
2022/08/01 07:14:32;;;;;;;2.33;1.83;;;24.10;99.90;;;;;;5155354;27;20029;-61
2022/08/01 07:16:58;;;;;;;3.85;1.73;;;24.20;99.90;;;;;;5156381;27;20046;-62
2022/08/01 07:19:24;;;;;;;2.40;2.20;;;24.30;99.90;;;;;;5156230;27;20471;-61
2022/08/01 07:21:49;;;;;;;3.38;1.80;;;24.40;99.90;;;;;;5156072;27;20023;-61
2022/08/01 07:24:15;;;;;;;6.65;2.05;;;24.40;99.90;;;;;;5156643;27;20033;-61
2022/08/01 07:26:46;;;;;;;2.10;1.90;;;24.40;99.90;;;;;;5156363;27;20076;-61
2022/08/01 07:29:11;;;;;;;2.03;1.80;;;24.50;99.90;;;;;;5156154;27;20075;-61
2022/08/01 07:31:37;;;;;;;5.07;2.17;;;24.40;99.90;;;;;;5156314;27;20030;-61
2022/08/01 07:34:03;;;;;;;1.70;1.60;;;24.40;99.90;;;;;;5156247;27;20019;-61
2022/08/01 07:36:29;;;;;;;3.10;1.63;;;24.30;99.90;;;;;;5156024;27;20406;-72
2022/08/01 07:38:55;;;;;;;2.08;1.88;;;24.30;99.90;;;;;;5155976;27;20027;-58
2022/08/01 07:41:21;;;;;;;3.60;1.95;;;24.20;99.90;;;;;;5156213;27;20051;-58
2022/08/01 07:43:48;;;;;;;3.92;2.45;;;24.20;99.90;;;;;;5156469;27;20022;-58
2022/08/01 07:46:14;;;;;;;3.15;1.90;;;24.20;99.90;;;;;;5156018;27;20069;-58
2022/08/01 07:48:40;;;;;;;2.97;2.08;;;24.10;99.90;;;;;;5154722;27;20031;-58
2022/08/01 07:51:06;;;;;;;4.10;1.98;;;24.00;99.90;;;;;;5155619;27;20031;-59
2022/08/01 07:53:31;;;;;;;3.70;1.63;;;24.10;99.90;;;;;;5155853;27;20025;-59
2022/08/01 07:55:57;;;;;;;2.97;2.33;;;24.10;99.90;;;;;;5155780;27;20027;-59
2022/08/01 07:58:23;;;;;;;5.15;2.63;;;24.20;99.90;;;;;;5154524;27;20023;-59
2022/08/01 08:00:48;;;;;;;6.03;1.98;;;24.20;99.90;;;;;;5155389;27;20034;-59
2022/08/01 08:03:14;;;;;;;6.95;1.92;;;24.30;99.90;;;;;;5155524;27;20026;-59
2022/08/01 08:05:39;;;;;;;5.70;1.60;;;24.30;99.90;;;;;;5156016;27;20080;-59
2022/08/01 08:08:06;;;;;;;3.60;1.80;;;24.30;99.90;;;;;;5155748;27;20451;-69
2022/08/01 08:10:33;;;;;;;1.38;1.33;;;24.50;99.90;;;;;;5154355;27;20027;-62
2022/08/01 08:12:58;;;;;;;2.28;1.67;;;24.70;99.90;;;;;;5155759;27;20027;-61
2022/08/01 08:15:24;;;;;;;1.65;1.40;;;24.80;99.90;;;;;;5155483;27;20049;-61
2022/08/01 08:17:50;;;;;;;1.63;1.52;;;24.90;99.60;;;;;;5155708;27;20027;-61
2022/08/01 08:20:16;;;;;;;1.63;1.52;;;25.20;98.60;;;;;;5155134;27;20033;-62
2022/08/01 08:22:41;;;;;;;2.25;1.42;;;25.70;98.10;;;;;;5155122;27;20019;-61
2022/08/01 08:25:08;;;;;;;1.88;1.33;;;26.30;96.70;;;;;;5155831;27;20459;-61
2022/08/01 08:27:35;;;;;;;1.27;1.25;;;27.00;95.20;;;;;;5155252;27;20414;-62
2022/08/01 08:30:01;;;;;;;2.00;1.23;;;27.60;92.10;;;;;;5154109;27;20039;-61
2022/08/01 08:32:27;;;;;;;2.13;1.50;;;27.50;91.20;;;;;;5155248;27;20460;-62
2022/08/01 08:34:53;;;;;;;2.90;1.50;;;27.10;92.20;;;;;;5154143;27;20023;-62
2022/08/01 08:37:18;;;;;;;2.65;1.85;;;26.90;91.50;;;;;;5154794;27;20091;-62
2022/08/01 08:39:44;;;;;;;1.95;1.45;;;26.70;91.00;;;;;;5155141;27;20022;-62
2022/08/01 08:42:11;;;;;;;2.45;1.58;;;26.50;90.60;;;;;;5155505;27;20061;-62
2022/08/01 08:44:38;;;;;;;2.08;1.70;;;26.30;91.40;;;;;;5154177;27;20058;-62
2022/08/01 08:47:07;;;;;;;4.65;1.58;;;26.70;91.20;;;;;;5155251;27;20505;-62
2022/08/01 08:49:33;;;;;;;3.20;1.58;;;27.20;89.70;;;;;;5155298;27;20023;-62
2022/08/01 08:52:01;;;;;;;2.53;1.70;;;28.00;88.10;;;;;;5155165;27;20057;-62
2022/08/01 08:54:28;;;;;;;4.70;2.55;;;28.30;85.30;;;;;;5155362;27;20023;-63
2022/08/01 08:56:54;;;;;;;1.33;1.25;;;28.40;84.00;;;;;;5153857;27;20484;-62
2022/08/01 08:59:20;;;;;;;3.53;1.80;;;28.20;82.90;;;;;;5155122;27;20023;-62
2022/08/01 09:01:46;;;;;;;1.88;1.60;;;28.00;83.20;;;;;;5154845;27;20045;-62
2022/08/01 09:04:12;;;;;;;2.78;1.58;;;27.80;83.20;;;;;;5154997;27;20455;-62
2022/08/01 09:06:39;;;;;;;2.90;1.77;;;27.60;85.00;;;;;;5155092;27;20029;-62
2022/08/01 09:09:06;;;;;;;3.47;1.60;;;27.50;84.30;;;;;;5154878;27;20065;-62
2022/08/01 09:11:33;;;;;;;3.20;1.90;;;27.40;85.40;;;;;;5154685;27;20031;-62
2022/08/01 09:14:04;;;;;;;1.90;1.80;;;27.30;84.70;;;;;;5140249;27;20030;-62
2022/08/01 09:16:30;;;;;;;1.73;1.63;;;27.40;84.50;;;;;;5140315;27;20400;-62
2022/08/01 09:19:08;;;;;;;2.20;2.00;;;27.60;84.50;;;;;;5158664;27;20026;-62
2022/08/01 09:21:34;;;;;;;3.00;2.03;;;27.60;84.20;;;;;;5159185;27;20031;-62
2022/08/01 09:24:02;;;;;;;2.53;1.83;;;27.70;84.60;;;;;;5158940;27;20477;-62
2022/08/01 09:26:34;;;;;;;2.10;1.98;;;27.70;84.10;;;;;;5159013;27;20023;-62
2022/08/01 09:29:05;;;;;;;2.55;1.90;;;27.80;83.10;;;;;;5159000;27;20023;-63
2022/08/01 09:31:40;;;;;;;5.55;2.05;;;27.90;83.20;;;;;;5158751;27;20062;-62
2022/08/01 09:34:07;;;;;;;2.30;2.10;;;28.10;83.00;;;;;;5140773;27;20029;-62
2022/08/01 09:36:58;;;;;;;2.95;2.22;;;28.60;81.70;;;;;;5175479;27;20355;-62
2022/08/01 09:39:37;;;;;;;2.90;1.77;;;28.60;80.90;;;;;;5140481;27;20026;-62
2022/08/01 09:42:22;;;;;;;1.85;1.75;;;28.60;79.60;;;;;;5158477;27;20547;-72
2022/08/01 09:44:49;;;;;;;4.20;1.83;;;28.90;78.00;;;;;;5140964;27;20023;-63
2022/08/01 09:47:16;;;;;;;2.20;2.00;;;29.20;76.70;;;;;;5158475;27;20019;-63
2022/08/01 09:49:43;;;;;;;3.35;2.00;;;29.50;75.20;;;;;;5139734;27;20079;-63
2022/08/01 09:52:11;;;;;;;3.42;2.00;;;29.70;74.30;;;;;;5157970;27;20026;-63
2022/08/01 09:54:38;;;;;;;;;;;29.90;72.40;;;;;;5140165;27;20087;-64
2022/08/01 09:57:19;;;;;;;2.03;1.90;;;29.60;72.70;;;;;;5158171;27;19907;-64
2022/08/01 09:59:48;;;;;;;4.63;2.15;;;29.40;73.20;;;;;;5158462;27;20037;-64
2022/08/01 10:02:31;;;;;;;2.35;1.70;;;29.30;74.40;;;;;;5158118;27;20023;-64
2022/08/01 10:04:57;;;;;;;2.33;2.13;;;28.80;74.60;;;;;;5158253;27;20029;-65
2022/08/01 10:07:23;;;;;;;3.17;2.63;;;28.50;75.40;;;;;;5157999;27;20535;-63
2022/08/01 10:09:49;;;;;;;3.42;2.38;;;28.50;74.70;;;;;;5158058;27;20060;-64
2022/08/01 10:12:19;;;;;;;3.10;2.15;;;29.10;73.60;;;;;;5139413;27;20066;-65
2022/08/01 10:14:49;;;;;;;2.20;2.00;;;29.60;73.30;;;;;;5157638;27;20472;-63
2022/08/01 10:17:17;;;;;;;2.30;2.10;;;30.20;71.80;;;;;;5139306;27;20034;-64
2022/08/01 10:19:44;;;;;;;1.58;1.48;;;30.80;68.50;;;;;;5157749;27;20015;-65
2022/08/01 10:22:18;;;;;;;1.95;1.85;;;30.90;67.00;;;;;;5157769;27;20018;-63
2022/08/01 10:24:47;;;;;;;2.10;1.90;;;31.20;65.70;;;;;;5157523;27;20037;-65
2022/08/01 10:27:16;;;;;;;1.98;1.88;;;31.80;65.50;;;;;;5158175;27;20030;-64
2022/08/01 10:29:42;;;;;;;2.08;1.90;;;32.00;63.90;;;;;;5159930;27;20029;-66
2022/08/01 10:32:09;;;;;;;1.83;1.70;;;32.50;63.30;;;;;;5142140;27;20121;-64
2022/08/01 10:34:36;;;;;;;4.25;1.73;;;32.40;61.40;;;;;;5159015;27;20023;-63
2022/08/01 10:37:03;;;;;;;2.53;2.10;;;32.30;61.20;;;;;;5159161;27;20034;-64
2022/08/01 10:39:34;;;;;;;6.90;2.60;;;32.40;60.40;;;;;;5159093;27;20027;-63
2022/08/01 10:42:00;;;;;;;2.70;2.10;;;32.30;60.00;;;;;;5158442;27;20130;-64
2022/08/01 10:44:28;;;;;;;2.50;2.20;;;32.40;60.30;;;;;;5157542;27;20026;-65
2022/08/01 10:47:11;;;;;;;3.20;2.03;;;32.60;60.10;;;;;;5138633;27;20029;-65
2022/08/01 10:49:53;;;;;;;3.33;1.88;;;32.70;59.30;;;;;;5157228;27;20105;-66
2022/08/01 10:52:19;;;;;;;2.83;2.40;;;33.00;59.20;;;;;;5138996;27;20130;-65
2022/08/01 10:54:45;;;;;;;1.73;1.58;;;33.00;58.60;;;;;;5138507;27;20066;-65
2022/08/01 10:57:12;;;;;;;1.85;1.75;;;32.90;57.50;;;;;;5157032;27;20023;-65
2022/08/01 10:59:51;;;;;;;3.13;1.60;;;32.90;57.30;;;;;;5138092;27;20087;-64
2022/08/01 11:02:28;;;;;;;2.13;1.80;;;33.30;55.30;;;;;;5157178;27;20038;-64
2022/08/01 11:05:10;;;;;;;3.83;1.83;;;33.30;55.70;;;;;;5156825;27;20106;-64
2022/08/01 11:07:45;;;;;;;2.15;1.85;;;33.50;56.40;;;;;;5156754;27;20051;-65
2022/08/01 11:10:32;;;;;;;1.98;1.85;;;33.70;54.30;;;;;;5156649;27;20027;-64
2022/08/01 11:13:00;;;;;;;4.93;1.90;;;33.70;53.80;;;;;;5138264;27;20378;-66
2022/08/01 11:15:27;;;;;;;10.63;2.28;;;34.20;53.50;;;;;;5156684;27;20028;-65
2022/08/01 11:17:54;;;;;;;1.83;1.48;;;34.10;52.70;;;;;;5138216;27;20387;-65
2022/08/01 11:20:24;;;;;;;4.43;1.88;;;34.40;53.40;;;;;;5156545;27;20023;-65
2022/08/01 11:22:58;;;;;;;3.13;1.85;;;34.40;50.70;;;;;;5156204;27;20490;-66
2022/08/01 11:25:25;;;;;;;6.93;2.17;;;34.70;51.50;;;;;;5138010;27;20148;-65
2022/08/01 11:28:16;;;;;;;6.90;1.83;;;34.90;51.10;;;;;;5138328;27;20026;-65
2022/08/01 11:30:50;;;;;;;4.30;1.92;;;35.00;51.00;;;;;;5156331;27;20076;-65
2022/08/01 11:33:17;;;;;;;7.60;2.05;;;35.20;50.60;;;;;;5156371;27;20110;-65
2022/08/01 11:36:17;;;;;;;3.00;1.63;;;35.80;50.30;;;;;;5155276;27;20026;-65
2022/08/01 11:39:02;;;;;;;2.67;2.08;;;35.60;49.10;;;;;;5156420;27;20031;-65
2022/08/01 11:41:33;;;;;;;2.67;1.67;;;35.40;49.20;;;;;;5156001;27;20077;-65
2022/08/01 11:44:02;;;;;;;1.88;1.73;;;35.70;49.10;;;;;;5156242;27;20067;-65
2022/08/01 11:46:49;;;;;;;1.75;1.60;;;35.10;49.30;;;;;;5156090;27;20472;-65
2022/08/01 11:49:45;;;;;;;3.67;1.60;;;35.00;48.60;;;;;;5155899;27;20029;-64
2022/08/01 11:52:18;;;;;;;3.15;1.50;;;34.90;48.60;;;;;;5156451;27;20146;-70
2022/08/01 11:54:44;;;;;;;2.83;2.10;;;34.30;48.30;;;;;;5155914;27;20057;-65
2022/08/01 11:57:17;;;;;;;2.75;1.65;;;33.50;50.30;;;;;;5137046;27;20463;-65
2022/08/01 11:59:51;;;;;;;3.65;1.73;;;32.40;51.80;;;;;;5155794;27;20071;-74
2022/08/01 12:02:25;;;;;;;2.20;1.98;;;31.00;54.80;;;;;;5137387;27;20026;-74
2022/08/01 12:05:03;;;;;;;1.58;1.48;;;30.50;56.60;;;;;;5155699;27;20023;-73
2022/08/01 12:07:31;;;;;;;2.05;1.63;;;32.00;54.30;;;;;;5155957;27;20023;-73
2022/08/01 12:10:07;;;;;;;3.40;2.00;;;32.90;52.60;;;;;;5155692;27;20083;-74
2022/08/01 12:12:34;;;;;;;1.63;1.52;;;33.00;52.10;;;;;;5137235;27;20027;-75
2022/08/01 12:15:03;;;;;;;1.52;1.13;;;32.40;51.80;;;;;;5155503;27;20091;-74
2022/08/01 12:17:34;;;;;;;;;;;32.10;51.00;;;;;;5137096;27;20071;-78
2022/08/01 12:20:00;;;;;;;2.25;1.20;;;32.00;51.30;;;;;;5136867;27;19903;-74
2022/08/01 12:22:26;;;;;;;0.90;0.90;;;32.20;50.40;;;;;;5156011;27;20030;-77
2022/08/01 12:24:52;;;;;;;1.70;0.63;;;32.80;49.60;;;;;;5155612;27;20349;-78
2022/08/01 12:27:29;;;;;;;1.00;0.90;;;32.70;50.40;;;;;;5137288;27;20026;-78
2022/08/01 12:29:56;;;;;;;1.00;1.00;;;32.60;50.90;;;;;;5137055;27;20027;-78
2022/08/01 12:32:30;;;;;;;0.95;0.68;;;31.80;51.80;;;;;;5166946;27;20027;-77
2022/08/01 12:35:01;;;;;;;0.93;0.93;;;31.50;52.00;;;;;;5155475;27;20015;-77
2022/08/01 12:37:27;;;;;;;1.20;1.10;;;31.20;52.90;;;;;;5155388;27;20034;-74
2022/08/01 12:39:53;;;;;;;2.05;1.00;;;30.70;55.30;;;;;;5153975;27;20164;-76
2022/08/01 12:42:19;;;;;;;1.95;1.27;;;30.80;55.60;;;;;;5155626;27;20488;-76
2022/08/01 12:44:48;;;;;;;2.10;1.63;;;30.70;56.50;;;;;;5155205;27;20031;-76
2022/08/01 12:47:15;;;;;;;2.17;1.40;;;30.80;57.10;;;;;;5156887;27;20394;-77
2022/08/01 12:49:42;;;;;;;2.05;1.20;;;30.30;60.20;;;;;;5159926;27;20029;-76
2022/08/01 12:52:09;;;;;;;4.68;1.15;;;29.40;62.10;;;;;;5159513;27;20034;-76
2022/08/01 12:55:04;;;;;;;4.82;1.75;;;29.20;64.00;;;;;;5159500;27;20361;-75
2022/08/01 12:57:30;;;;;;;4.75;1.40;;;28.40;69.10;;;;;;5158325;27;20023;-73